createdAt,value
2023-04-01T08:37:12.990Z,968.65
2023-04-01T08:38:13.907Z,968.58
2023-04-01T08:39:14.311Z,968.67
2023-04-01T08:40:13.981Z,968.72
2023-04-01T08:41:13.841Z,968.67
2023-04-01T08:42:34.846Z,968.67
2023-04-01T08:43:13.842Z,968.73
2023-04-01T08:44:13.845Z,968.57
2023-04-01T08:45:14.714Z,968.68
2023-04-01T08:46:13.870Z,968.75
2023-04-01T08:47:13.988Z,968.65
2023-04-01T08:48:13.844Z,968.68
2023-04-01T08:49:13.796Z,968.60
2023-04-01T08:50:13.789Z,968.68
2023-04-01T08:51:13.749Z,968.67
2023-04-01T08:52:13.989Z,968.68
2023-04-01T08:53:13.997Z,968.68
2023-04-01T08:54:13.739Z,968.79
2023-04-01T08:55:13.822Z,968.63
2023-04-01T08:56:13.690Z,968.61
2023-04-01T08:57:13.902Z,968.65
2023-04-01T08:58:13.662Z,968.56
2023-04-01T08:59:13.875Z,968.65
2023-04-01T09:00:13.621Z,968.69
2023-04-01T09:01:13.623Z,968.69
2023-04-01T09:02:13.576Z,968.59
2023-04-01T09:03:13.700Z,968.60
2023-04-01T09:04:13.728Z,968.62
2023-04-01T09:05:13.598Z,968.57
2023-04-01T09:06:13.648Z,968.64
2023-04-01T09:07:13.551Z,968.63
2023-04-01T09:08:13.479Z,968.65
2023-04-01T09:09:13.544Z,968.59
2023-04-01T09:10:13.536Z,968.51
2023-04-01T09:11:13.516Z,968.67
2023-04-01T09:12:13.576Z,968.62
2023-04-01T09:13:13.468Z,968.55
2023-04-01T09:14:13.500Z,968.58
2023-04-01T09:15:13.519Z,968.64
2023-04-01T09:16:13.543Z,968.63
2023-04-01T09:17:13.527Z,968.64
2023-04-01T09:18:13.533Z,968.58
2023-04-01T09:19:13.495Z,968.59
2023-04-01T09:20:13.455Z,968.64
2023-04-01T09:21:13.538Z,968.63
2023-04-01T09:22:13.465Z,968.61
2023-04-01T09:23:13.507Z,968.62
2023-04-01T09:24:13.577Z,968.63
2023-04-01T09:25:13.522Z,968.59
2023-04-01T09:26:13.502Z,968.60
2023-04-01T09:27:13.515Z,968.59
2023-04-01T09:28:13.636Z,968.53
2023-04-01T09:29:13.926Z,968.51
2023-04-01T09:30:13.531Z,968.68
2023-04-01T09:31:13.550Z,968.62
2023-04-01T09:32:13.465Z,968.61
2023-04-01T09:33:13.480Z,968.58
2023-04-01T09:34:13.393Z,968.59
2023-04-01T09:35:13.620Z,968.62
2023-04-01T09:36:13.470Z,968.59
2023-04-01T09:37:13.511Z,968.61
2023-04-01T09:38:13.418Z,968.60
2023-04-01T09:39:13.084Z,968.60
2023-04-01T09:40:13.402Z,968.52
2023-04-01T09:41:13.137Z,968.59
2023-04-01T09:42:13.242Z,968.60
2023-04-01T09:43:13.056Z,968.50
2023-04-01T09:44:13.039Z,968.59
2023-04-01T09:45:13.051Z,968.55
2023-04-01T09:46:13.307Z,968.53
2023-04-01T09:47:12.995Z,968.55
2023-04-01T09:48:13.055Z,968.56
2023-04-01T09:49:12.972Z,968.59
2023-04-01T09:50:12.958Z,968.55
2023-04-01T09:51:13.009Z,968.51
2023-04-01T09:52:13.022Z,968.55
2023-04-01T09:53:12.941Z,968.63
2023-04-01T09:54:13.041Z,968.58
2023-04-01T09:55:13.192Z,968.62
2023-04-01T09:56:12.892Z,968.59
2023-04-01T09:57:13.028Z,968.70
2023-04-01T09:58:12.872Z,968.76
2023-04-01T09:59:12.798Z,968.71
2023-04-01T10:00:12.809Z,968.76
2023-04-01T10:01:13.348Z,968.78
2023-04-01T10:02:12.863Z,968.72
2023-04-01T10:03:12.832Z,968.73
2023-04-01T10:04:12.778Z,968.72
2023-04-01T10:05:12.911Z,968.66
2023-04-01T10:06:12.813Z,968.69
2023-04-01T10:07:12.712Z,968.62
2023-04-01T10:08:12.764Z,968.56
2023-04-01T10:09:12.889Z,968.61
2023-04-01T10:10:12.758Z,968.64
2023-04-01T10:11:12.678Z,968.60
2023-04-01T10:12:12.666Z,968.61
2023-04-01T10:13:12.888Z,968.57
2023-04-01T10:14:12.812Z,968.54
2023-04-01T10:15:12.865Z,968.53
2023-04-01T10:16:12.750Z,968.49
2023-04-01T10:17:12.624Z,968.50
2023-04-01T10:18:12.575Z,968.49
2023-04-01T10:19:12.586Z,968.52
2023-04-01T10:20:12.775Z,968.51
2023-04-01T10:21:12.601Z,968.52
2023-04-01T10:22:12.729Z,968.42
2023-04-01T10:23:12.532Z,968.46
2023-04-01T10:24:12.512Z,968.40
2023-04-01T10:25:12.524Z,968.52
2023-04-01T10:26:12.520Z,968.47
2023-04-01T10:27:12.468Z,968.41
2023-04-01T10:28:12.467Z,968.46
2023-04-01T10:29:12.458Z,968.55
2023-04-01T10:30:12.416Z,968.52
2023-04-01T10:31:12.557Z,968.40
2023-04-01T10:32:12.561Z,968.43
2023-04-01T10:33:12.559Z,968.44
2023-04-01T10:34:12.392Z,968.33
2023-04-01T10:35:12.555Z,968.33
2023-04-01T10:36:12.391Z,968.39
2023-04-01T10:37:12.530Z,968.37
2023-04-01T10:38:12.549Z,968.37
2023-04-01T10:39:12.299Z,968.36
2023-04-01T10:40:12.409Z,968.24
2023-04-01T10:41:12.263Z,968.22
2023-04-01T10:42:12.383Z,968.19
2023-04-01T10:43:12.342Z,968.21
2023-04-01T10:44:12.371Z,968.28
2023-04-01T10:45:12.223Z,968.25
2023-04-01T10:46:13.229Z,968.24
2023-04-01T10:47:12.213Z,968.23
2023-04-01T10:48:12.168Z,968.31
2023-04-01T10:49:12.305Z,968.24
2023-04-01T10:50:12.383Z,968.24
2023-04-01T10:51:12.213Z,968.32
2023-04-01T10:52:12.125Z,968.20
2023-04-01T10:53:12.217Z,968.20
2023-04-01T10:54:12.166Z,968.15
2023-04-01T10:55:12.090Z,968.18
2023-04-01T10:56:12.059Z,968.22
2023-04-01T10:57:12.256Z,968.12
2023-04-01T10:58:12.068Z,968.20
2023-04-01T10:59:12.024Z,968.22
2023-04-01T11:00:12.091Z,968.18
2023-04-01T11:01:12.258Z,968.18
2023-04-01T11:02:12.464Z,968.15
2023-04-01T11:03:12.031Z,968.18
2023-04-01T11:04:11.992Z,968.21
2023-04-01T11:05:12.216Z,968.15
2023-04-01T11:06:12.166Z,968.10
2023-04-01T11:07:11.975Z,968.08
2023-04-01T11:08:11.898Z,968.09
2023-04-01T11:09:11.894Z,968.00
2023-04-01T11:10:11.932Z,967.94
2023-04-01T11:11:11.900Z,967.98
2023-04-01T11:12:11.918Z,967.96
2023-04-01T11:13:11.901Z,967.99
2023-04-01T11:14:11.837Z,967.91
2023-04-01T11:15:11.808Z,967.91
2023-04-01T11:16:11.848Z,967.91
2023-04-01T11:17:11.810Z,967.85
2023-04-01T11:18:11.905Z,967.86
2023-04-01T11:19:11.914Z,967.91
2023-04-01T11:20:11.723Z,967.90
2023-04-01T11:21:11.924Z,967.90
2023-04-01T11:22:11.722Z,967.90
2023-04-01T11:23:11.883Z,967.78
2023-04-01T11:24:11.825Z,967.84
2023-04-01T11:25:11.890Z,967.83
2023-04-01T11:26:11.753Z,967.77
2023-04-01T11:27:11.688Z,967.80
2023-04-01T11:28:11.755Z,967.79
2023-04-01T11:29:11.630Z,967.79
2023-04-01T11:30:11.681Z,967.79
2023-04-01T11:31:11.612Z,967.71
2023-04-01T11:32:11.594Z,967.74
2023-04-01T11:33:11.634Z,967.64
2023-04-01T11:34:11.574Z,967.71
2023-04-01T11:35:11.622Z,967.71
2023-04-01T11:36:11.658Z,967.65
2023-04-01T11:37:11.586Z,967.72
2023-04-01T11:38:11.507Z,967.69
2023-04-01T11:39:11.585Z,967.74
2023-04-01T11:40:11.478Z,967.72
2023-04-01T11:41:11.664Z,967.68
2023-04-01T11:42:11.452Z,967.74
2023-04-01T11:43:17.315Z,967.73
2023-04-01T11:44:11.420Z,967.80
2023-04-01T11:45:11.588Z,967.74
2023-04-01T11:46:11.448Z,967.77
2023-04-01T11:47:11.444Z,967.68
2023-04-01T11:48:11.434Z,967.66
2023-04-01T11:49:11.382Z,967.66
2023-04-01T11:50:11.325Z,967.63
2023-04-01T11:51:11.364Z,967.58
2023-04-01T11:52:11.301Z,967.61
2023-04-01T11:53:11.364Z,967.62
2023-04-01T11:54:11.409Z,967.66
2023-04-01T11:55:11.281Z,967.62
2023-04-01T11:56:11.249Z,967.57
2023-04-01T11:57:11.323Z,967.59
2023-04-01T11:58:11.236Z,967.65
2023-04-01T11:59:11.271Z,967.59
2023-04-01T12:00:11.325Z,967.61
2023-04-01T12:01:11.189Z,967.54
2023-04-01T12:02:11.211Z,967.60
2023-04-01T12:03:11.332Z,967.51
2023-04-01T12:04:11.365Z,967.55
2023-04-01T12:05:11.191Z,967.56
2023-04-01T12:06:11.135Z,967.47
2023-04-01T12:07:11.109Z,967.46
2023-04-01T12:08:11.096Z,967.50
2023-04-01T12:09:11.103Z,967.54
2023-04-01T12:10:11.180Z,967.52
2023-04-01T12:11:11.176Z,967.50
2023-04-01T12:12:11.019Z,967.49
2023-04-01T12:13:11.032Z,967.39
2023-04-01T12:14:11.030Z,967.37
2023-04-01T12:15:11.017Z,967.42
2023-04-01T12:16:11.021Z,967.41
2023-04-01T12:17:11.085Z,967.43
2023-04-01T12:18:11.026Z,967.45
2023-04-01T12:19:10.921Z,967.49
2023-04-01T12:20:10.962Z,967.50
2023-04-01T12:21:10.921Z,967.45
2023-04-01T12:22:10.920Z,967.47
2023-04-01T12:23:11.029Z,967.43
2023-04-01T12:24:10.902Z,967.38
2023-04-01T12:25:10.875Z,967.41
2023-04-01T12:26:10.909Z,967.37
2023-04-01T12:27:10.876Z,967.39
2023-04-01T12:28:10.921Z,967.37
2023-04-01T12:29:11.236Z,967.38
2023-04-01T12:30:10.869Z,967.42
2023-04-01T12:31:10.806Z,967.36
2023-04-01T12:32:10.834Z,967.37
2023-04-01T12:33:10.824Z,967.37
2023-04-01T12:34:10.866Z,967.40
2023-04-01T12:35:10.725Z,967.35
2023-04-01T12:36:10.770Z,967.29
2023-04-01T12:37:10.745Z,967.29
2023-04-01T12:38:10.714Z,967.22
2023-04-01T12:39:10.761Z,967.23
2023-04-01T12:40:10.682Z,967.28
2023-04-01T12:41:10.668Z,967.22
2023-04-01T12:42:10.649Z,967.27
2023-04-01T12:43:10.673Z,967.35
2023-04-01T12:44:10.647Z,967.44
2023-04-01T12:45:10.653Z,967.55
2023-04-01T12:46:10.665Z,967.70
2023-04-01T12:47:10.609Z,967.92
2023-04-01T12:48:10.597Z,968.15
2023-04-01T12:49:10.531Z,968.19
2023-04-01T12:50:10.665Z,968.28
2023-04-01T12:51:10.529Z,968.27
2023-04-01T12:52:10.495Z,968.33
2023-04-01T12:53:10.521Z,968.34
2023-04-01T12:54:10.480Z,968.32
2023-04-01T12:55:10.459Z,968.27
2023-04-01T12:56:10.542Z,968.35
2023-04-01T12:57:10.512Z,968.39
2023-04-01T12:58:10.436Z,968.35
2023-04-01T12:59:10.411Z,968.35
2023-04-01T13:00:10.426Z,968.30
2023-04-01T13:01:10.439Z,968.22
2023-04-01T13:02:10.465Z,968.10
2023-04-01T13:03:10.450Z,968.03
2023-04-01T13:04:10.442Z,967.96
2023-04-01T13:05:10.396Z,968.05
2023-04-01T13:06:10.315Z,968.09
2023-04-01T13:07:10.386Z,968.10
2023-04-01T13:08:10.265Z,968.10
2023-04-01T13:09:10.300Z,968.10
2023-04-01T13:10:10.292Z,968.07
2023-04-01T13:11:10.261Z,968.13
2023-04-01T13:12:10.256Z,968.01
2023-04-01T13:13:10.400Z,968.06
2023-04-01T13:14:15.832Z,968.04
2023-04-01T13:15:10.240Z,967.99
2023-04-01T13:16:10.254Z,967.95
2023-04-01T13:17:10.164Z,967.93
2023-04-01T13:18:10.197Z,967.95
2023-04-01T13:19:10.229Z,967.89
2023-04-01T13:20:10.158Z,967.91
2023-04-01T13:21:10.106Z,967.88
2023-04-01T13:22:10.128Z,967.79
2023-04-01T13:23:10.105Z,967.84
2023-04-01T13:24:10.212Z,967.80
2023-04-01T13:25:10.108Z,967.86
2023-04-01T13:26:14.252Z,967.88
2023-04-01T13:27:10.020Z,967.85
2023-04-01T13:28:10.152Z,967.87
2023-04-01T13:29:10.088Z,967.90
2023-04-01T13:30:10.081Z,967.89
2023-04-01T13:31:10.078Z,967.92
2023-04-01T13:32:09.985Z,967.84
2023-04-01T13:33:10.217Z,967.89
2023-04-01T13:34:09.998Z,967.84
2023-04-01T13:35:09.946Z,967.84
2023-04-01T13:36:10.216Z,967.87
2023-04-01T13:37:09.974Z,967.82
2023-04-01T13:38:09.942Z,967.83
2023-04-01T13:39:09.903Z,967.79
2023-04-01T13:40:09.884Z,967.81
2023-04-01T13:41:10.158Z,967.83
2023-04-01T13:42:09.849Z,967.82
2023-04-01T13:43:09.850Z,967.77
2023-04-01T13:44:09.799Z,967.75
2023-04-01T13:45:09.805Z,967.71
2023-04-01T13:46:09.888Z,967.72
2023-04-01T13:47:09.974Z,967.75
2023-04-01T13:48:09.914Z,967.76
2023-04-01T13:49:09.859Z,967.75
2023-04-01T13:50:09.774Z,967.64
2023-04-01T13:51:09.825Z,967.74
2023-04-01T13:52:09.781Z,967.67
2023-04-01T13:53:09.704Z,967.68
2023-04-01T13:54:09.698Z,967.77
2023-04-01T13:55:10.023Z,967.78
2023-04-01T13:56:09.674Z,967.81
2023-04-01T13:57:09.706Z,967.76
2023-04-01T13:58:09.691Z,967.78
2023-04-01T13:59:09.648Z,967.81
2023-04-01T14:00:09.573Z,967.83
2023-04-01T14:01:09.635Z,967.72
2023-04-01T14:02:09.716Z,967.74
2023-04-01T14:03:09.630Z,967.76
2023-04-01T14:04:09.775Z,967.80
2023-04-01T14:05:09.563Z,967.75
2023-04-01T14:06:09.824Z,967.71
2023-04-01T14:07:09.505Z,967.68
2023-04-01T14:08:09.495Z,967.68
2023-04-01T14:09:09.681Z,967.67
2023-04-01T14:10:09.569Z,967.66
2023-04-01T14:11:09.489Z,967.70
2023-04-01T14:12:09.497Z,967.65
2023-04-01T14:13:09.439Z,967.67
2023-04-01T14:14:09.418Z,967.79
2023-04-01T14:15:09.469Z,967.79
2023-04-01T14:16:09.466Z,967.82
2023-04-01T14:17:09.659Z,967.81
2023-04-01T14:18:09.456Z,967.84
2023-04-01T14:19:09.358Z,967.82
2023-04-01T14:20:09.406Z,967.88
2023-04-01T14:21:09.557Z,967.94
2023-04-01T14:22:09.303Z,967.92
2023-04-01T14:23:09.325Z,967.88
2023-04-01T14:24:09.308Z,967.89
2023-04-01T14:25:09.282Z,967.89
2023-04-01T14:26:09.378Z,967.96
2023-04-01T14:27:09.344Z,967.99
2023-04-01T14:28:09.350Z,967.96
2023-04-01T14:29:09.280Z,968.08
2023-04-01T14:30:09.189Z,968.19
2023-04-01T14:31:09.354Z,968.19
2023-04-01T14:32:09.325Z,968.31
2023-04-01T14:33:09.313Z,968.30
2023-04-01T14:34:09.154Z,968.30
2023-04-01T14:35:09.144Z,968.30
2023-04-01T14:36:09.146Z,968.21
2023-04-01T14:37:09.113Z,968.30
2023-04-01T14:38:09.200Z,968.18
2023-04-01T14:39:09.117Z,968.22
2023-04-01T14:40:09.062Z,968.18
2023-04-01T14:41:09.060Z,968.22
2023-04-01T14:42:21.073Z,968.25
2023-04-01T14:43:09.058Z,968.20
2023-04-01T14:44:09.020Z,968.22
2023-04-01T14:45:09.047Z,968.22
2023-04-01T14:46:09.044Z,968.19
2023-04-01T14:47:09.003Z,968.20
2023-04-01T14:48:08.984Z,968.19
2023-04-01T14:49:09.034Z,968.19
2023-04-01T14:50:08.942Z,968.24
2023-04-01T14:51:08.934Z,968.14
2023-04-01T14:52:08.922Z,968.20
2023-04-01T14:53:08.912Z,968.23
2023-04-01T14:54:08.906Z,968.20
2023-04-01T14:55:08.833Z,968.07
2023-04-01T14:56:08.792Z,968.13
2023-04-01T14:57:08.868Z,968.13
2023-04-01T14:58:08.857Z,968.18
2023-04-01T14:59:08.809Z,968.18
2023-04-01T15:00:08.861Z,968.29
2023-04-01T15:01:08.797Z,968.35
2023-04-01T15:02:08.757Z,968.40
2023-04-01T15:03:08.806Z,968.55
2023-04-01T15:04:08.750Z,968.73
2023-04-01T15:05:08.851Z,968.79
2023-04-01T15:06:08.714Z,968.65
2023-04-01T15:07:08.705Z,968.53
2023-04-01T15:08:08.685Z,968.58
2023-04-01T15:09:08.736Z,968.50
2023-04-01T15:10:09.158Z,968.55
2023-04-01T15:11:08.780Z,968.58
2023-04-01T15:12:08.690Z,968.58
2023-04-01T15:13:08.661Z,968.58
2023-04-01T15:14:08.610Z,968.62
2023-04-01T15:15:08.598Z,968.57
2023-04-01T15:16:08.712Z,968.57
2023-04-01T15:17:08.634Z,968.58
2023-04-01T15:18:08.598Z,968.56
2023-04-01T15:19:08.620Z,968.60
2023-04-01T15:20:08.531Z,968.62
2023-04-01T15:21:08.522Z,968.65
2023-04-01T15:22:08.616Z,968.64
2023-04-01T15:23:08.503Z,968.64
2023-04-01T15:24:08.456Z,968.64
2023-04-01T15:25:08.551Z,968.72
2023-04-01T15:26:08.452Z,968.75
2023-04-01T15:27:08.464Z,968.78
2023-04-01T15:28:08.521Z,968.91
2023-04-01T15:29:08.424Z,968.91
2023-04-01T15:30:08.417Z,968.90
2023-04-01T15:31:08.467Z,968.93
2023-04-01T15:32:08.346Z,969.00
2023-04-01T15:33:08.435Z,968.98
2023-04-01T15:34:08.394Z,969.01
2023-04-01T15:35:08.361Z,968.96
2023-04-01T15:36:08.390Z,968.85
2023-04-01T15:37:08.343Z,969.01
2023-04-01T15:38:08.758Z,968.93
2023-04-01T15:39:08.950Z,968.96
2023-04-01T15:40:08.298Z,968.91
2023-04-01T15:41:08.256Z,969.00
2023-04-01T15:42:08.263Z,968.90
2023-04-01T15:43:08.210Z,968.96
2023-04-01T15:44:08.266Z,968.98
2023-04-01T15:45:08.263Z,968.90
2023-04-01T15:46:08.187Z,968.96
2023-04-01T15:47:08.246Z,968.95
2023-04-01T15:48:08.327Z,968.97
2023-04-01T15:49:08.900Z,968.99
2023-04-01T15:50:08.241Z,969.01
2023-04-01T15:51:08.160Z,968.97
2023-04-01T15:52:08.120Z,968.92
2023-04-01T15:53:08.099Z,969.09
2023-04-01T15:54:08.055Z,968.96
2023-04-01T15:55:08.088Z,968.95
2023-04-01T15:56:08.170Z,969.03
2023-04-01T15:57:08.119Z,969.07
2023-04-01T15:58:08.182Z,969.00
2023-04-01T15:59:08.031Z,969.03
2023-04-01T16:00:07.990Z,969.02
2023-04-01T16:01:07.988Z,969.03
2023-04-01T16:02:08.118Z,968.99
2023-04-01T16:03:08.032Z,968.98
2023-04-01T16:04:08.140Z,969.03
2023-04-01T16:05:07.917Z,969.04
2023-04-01T16:06:07.916Z,969.07
2023-04-01T16:07:07.914Z,969.02
2023-04-01T16:08:08.035Z,969.05
2023-04-01T16:09:07.906Z,969.05
2023-04-01T16:10:08.691Z,969.02
2023-04-01T16:11:07.997Z,969.08
2023-04-01T16:12:07.842Z,969.05
2023-04-01T16:13:07.831Z,969.02
2023-04-01T16:14:07.888Z,969.02
2023-04-01T16:15:07.791Z,969.08
2023-04-01T16:16:07.803Z,968.98
2023-04-01T16:17:07.778Z,969.07
2023-04-01T16:18:08.674Z,969.11
2023-04-01T16:19:07.785Z,969.13
2023-04-01T16:20:07.792Z,969.08
2023-04-01T16:21:07.763Z,969.12
2023-04-01T16:22:07.762Z,969.10
2023-04-01T16:23:07.703Z,969.17
2023-04-01T16:24:07.667Z,969.14
2023-04-01T16:25:07.678Z,969.19
2023-04-01T16:26:07.793Z,969.17
2023-04-01T16:27:07.649Z,969.20
2023-04-01T16:28:07.648Z,969.20
2023-04-01T16:29:07.618Z,969.18
2023-04-01T16:30:07.653Z,969.23
2023-04-01T16:31:07.622Z,969.23
2023-04-01T16:32:07.655Z,969.39
2023-04-01T16:33:07.776Z,969.29
2023-04-01T16:34:07.667Z,969.36
2023-04-01T16:35:07.598Z,969.41
2023-04-01T16:36:08.854Z,969.32
2023-04-01T16:37:07.605Z,969.33
2023-04-01T16:38:07.631Z,969.43
2023-04-01T16:39:07.722Z,969.39
2023-04-01T16:40:07.565Z,969.43
2023-04-01T16:41:07.490Z,969.37
2023-04-01T16:42:07.594Z,969.49
2023-04-01T16:43:07.499Z,969.44
2023-04-01T16:44:07.586Z,969.52
2023-04-01T16:45:07.523Z,969.45
2023-04-01T16:46:07.494Z,969.41
2023-04-01T16:47:07.439Z,969.51
2023-04-01T16:48:07.702Z,969.57
2023-04-01T16:49:07.405Z,969.54
2023-04-01T16:50:07.371Z,969.52
2023-04-01T16:51:07.412Z,969.58
2023-04-01T16:52:07.583Z,969.51
2023-04-01T16:53:07.582Z,969.54
2023-04-01T16:54:07.375Z,969.55
2023-04-01T16:55:07.590Z,969.56
2023-04-01T16:56:07.428Z,969.61
2023-04-01T16:57:07.264Z,969.55
2023-04-01T16:58:07.317Z,969.62
2023-04-01T16:59:07.304Z,969.63
2023-04-01T17:00:07.297Z,969.65
2023-04-01T17:01:07.446Z,969.66
2023-04-01T17:02:07.245Z,969.67
2023-04-01T17:03:07.207Z,969.62
2023-04-01T17:04:07.318Z,969.63
2023-04-01T17:05:07.427Z,969.59
2023-04-01T17:06:07.169Z,969.63
2023-04-01T17:07:07.107Z,969.66
2023-04-01T17:08:07.278Z,969.63
2023-04-01T17:09:07.195Z,969.72
2023-04-01T17:10:07.442Z,969.75
2023-04-01T17:11:07.582Z,969.72
2023-04-01T17:12:07.364Z,969.66
2023-04-01T17:13:07.187Z,969.70
2023-04-01T17:14:07.332Z,969.79
2023-04-01T17:15:07.137Z,969.80
2023-04-01T17:16:07.082Z,969.83
2023-04-01T17:17:06.993Z,969.83
2023-04-01T17:18:07.477Z,969.82
2023-04-01T17:19:06.966Z,969.84
2023-04-01T17:20:07.032Z,969.84
2023-04-01T17:21:07.237Z,969.80
2023-04-01T17:22:06.932Z,969.83
2023-04-01T17:23:07.277Z,969.91
2023-04-01T17:24:06.935Z,969.84
2023-04-01T17:25:06.957Z,969.89
2023-04-01T17:26:06.881Z,969.91
2023-04-01T17:27:06.853Z,969.87
2023-04-01T17:28:06.855Z,970.01
2023-04-01T17:29:06.897Z,969.96
2023-04-01T17:30:06.793Z,969.97
2023-04-01T17:31:06.828Z,969.90
2023-04-01T17:32:06.793Z,969.98
2023-04-01T17:33:06.771Z,970.00
2023-04-01T17:34:06.759Z,969.92
2023-04-01T17:35:06.952Z,970.04
2023-04-01T17:36:06.938Z,970.08
2023-04-01T17:37:06.782Z,970.04
2023-04-01T17:38:06.701Z,970.06
2023-04-01T17:39:07.094Z,970.06
2023-04-01T17:40:07.019Z,970.03
2023-04-01T17:41:06.789Z,970.10
2023-04-01T17:42:06.812Z,970.10
2023-04-01T17:43:06.763Z,970.10
2023-04-01T17:44:06.635Z,970.08
2023-04-01T17:45:06.615Z,970.08
2023-04-01T17:46:06.798Z,970.12
2023-04-01T17:47:07.032Z,970.19
2023-04-01T17:48:06.827Z,970.26
2023-04-01T17:49:06.641Z,970.16
2023-04-01T17:50:06.677Z,970.20
2023-04-01T17:51:06.608Z,970.16
2023-04-01T17:52:06.618Z,970.17
2023-04-01T17:53:06.529Z,970.21
2023-04-01T17:54:06.621Z,970.19
2023-04-01T17:55:06.753Z,970.22
2023-04-01T17:56:06.487Z,970.26
2023-04-01T17:57:06.514Z,970.21
2023-04-01T17:58:06.794Z,970.18
2023-04-01T17:59:06.677Z,970.18
2023-04-01T18:00:06.428Z,970.21
2023-04-01T18:01:06.420Z,970.27
2023-04-01T18:02:06.419Z,970.31
2023-04-01T18:03:06.613Z,970.21
2023-04-01T18:04:06.848Z,970.23
2023-04-01T18:05:06.476Z,970.25
2023-04-01T18:06:06.893Z,970.23
2023-04-01T18:07:06.567Z,970.26
2023-04-01T18:08:06.505Z,970.27
2023-04-01T18:09:06.537Z,970.21
2023-04-01T18:10:06.484Z,970.18
2023-04-01T18:11:06.496Z,970.28
2023-04-01T18:12:06.256Z,970.20
2023-04-01T18:13:06.506Z,970.34
2023-04-01T18:14:06.320Z,970.21
2023-04-01T18:15:06.477Z,970.25
2023-04-01T18:16:06.418Z,970.21
2023-04-01T18:17:06.212Z,970.27
2023-04-01T18:18:06.521Z,970.26
2023-04-01T18:19:06.157Z,970.29
2023-04-01T18:20:06.264Z,970.36
2023-04-01T18:21:06.137Z,970.29
2023-04-01T18:22:06.133Z,970.28
2023-04-01T18:23:06.184Z,970.32
2023-04-01T18:24:06.093Z,970.36
2023-04-01T18:25:06.064Z,970.30
2023-04-01T18:26:06.173Z,970.32
2023-04-01T18:27:06.052Z,970.35
2023-04-01T18:28:06.023Z,970.32
2023-04-01T18:29:06.181Z,970.30
2023-04-01T18:30:06.159Z,970.40
2023-04-01T18:31:06.009Z,970.32
2023-04-01T18:32:06.158Z,970.30
2023-04-01T18:33:06.020Z,970.38
2023-04-01T18:34:05.988Z,970.36
2023-04-01T18:35:05.967Z,970.35
2023-04-01T18:36:05.977Z,970.36
2023-04-01T18:37:05.927Z,970.37
2023-04-01T18:38:06.169Z,970.33
2023-04-01T18:39:05.892Z,970.33
2023-04-01T18:40:06.048Z,970.30
2023-04-01T18:41:05.872Z,970.29
2023-04-01T18:42:07.441Z,970.31
2023-04-01T18:43:05.860Z,970.34
2023-04-01T18:44:06.032Z,970.30
2023-04-01T18:45:05.819Z,970.32
2023-04-01T18:46:09.005Z,970.37
2023-04-01T18:47:05.786Z,970.32
2023-04-01T18:48:05.885Z,970.39
2023-04-01T18:49:05.816Z,970.39
2023-04-01T18:50:05.988Z,970.33
2023-04-01T18:51:05.766Z,970.35
2023-04-01T18:52:05.674Z,970.37
2023-04-01T18:53:05.735Z,970.38
2023-04-01T18:54:05.983Z,970.40
2023-04-01T18:55:05.782Z,970.37
2023-04-01T18:56:05.672Z,970.36
2023-04-01T18:57:05.679Z,970.36
2023-04-01T18:58:05.651Z,970.35
2023-04-01T18:59:05.620Z,970.36
2023-04-01T19:00:05.850Z,970.42
2023-04-01T19:01:05.679Z,970.38
2023-04-01T19:02:05.584Z,970.43
2023-04-01T19:03:05.627Z,970.43
2023-04-01T19:04:05.672Z,970.38
2023-04-01T19:05:05.614Z,970.42
2023-04-01T19:06:05.553Z,970.47
2023-04-01T19:07:05.615Z,970.45
2023-04-01T19:08:05.526Z,970.43
2023-04-01T19:09:05.495Z,970.45
2023-04-01T19:10:05.666Z,970.45
2023-04-01T19:11:05.577Z,970.51
2023-04-01T19:12:05.456Z,970.44
2023-04-01T19:13:05.510Z,970.49
2023-04-01T19:14:05.627Z,970.53
2023-04-01T19:15:05.412Z,970.43
2023-04-01T19:16:05.744Z,970.54
2023-04-01T19:17:05.612Z,970.52
2023-04-01T19:18:05.399Z,970.54
2023-04-01T19:19:05.529Z,970.53
2023-04-01T19:20:05.347Z,970.54
2023-04-01T19:21:05.478Z,970.57
2023-04-01T19:22:05.406Z,970.61
2023-04-01T19:23:05.583Z,970.61
2023-04-01T19:24:06.153Z,970.62
2023-04-01T19:25:05.274Z,970.69
2023-04-01T19:26:05.303Z,970.58
2023-04-01T19:27:05.325Z,970.58
2023-04-01T19:28:05.302Z,970.60
2023-04-01T19:29:05.205Z,970.58
2023-04-01T19:30:05.519Z,970.61
2023-04-01T19:31:05.222Z,970.57
2023-04-01T19:32:05.166Z,970.61
2023-04-01T19:33:05.350Z,970.56
2023-04-01T19:34:05.157Z,970.52
2023-04-01T19:35:05.146Z,970.49
2023-04-01T19:36:05.211Z,970.52
2023-04-01T19:37:05.108Z,970.52
2023-04-01T19:38:05.082Z,970.54
2023-04-01T19:39:05.359Z,970.47
2023-04-01T19:40:05.076Z,970.53
2023-04-01T19:41:05.067Z,970.47
2023-04-01T19:42:05.352Z,970.49
2023-04-01T19:43:05.056Z,970.52
2023-04-01T19:44:05.023Z,970.55
2023-04-01T19:45:05.122Z,970.48
2023-04-01T19:46:05.090Z,970.53
2023-04-01T19:47:04.990Z,970.52
2023-04-01T19:48:05.075Z,970.52
2023-04-01T19:49:04.970Z,970.60
2023-04-01T19:50:05.046Z,970.52
2023-04-01T19:51:04.960Z,970.57
2023-04-01T19:52:05.099Z,970.46
2023-04-01T19:53:04.910Z,970.55
2023-04-01T19:54:04.939Z,970.49
2023-04-01T19:55:04.878Z,970.56
2023-04-01T19:56:04.908Z,970.56
2023-04-01T19:57:04.918Z,970.60
2023-04-01T19:58:06.532Z,970.51
2023-04-01T19:59:04.892Z,970.67
2023-04-01T20:00:04.890Z,970.63
2023-04-01T20:01:05.036Z,970.60
2023-04-01T20:02:04.826Z,970.67
2023-04-01T20:03:05.146Z,970.67
2023-04-01T20:04:04.876Z,970.70
2023-04-01T20:05:04.737Z,970.70
2023-04-01T20:06:04.779Z,970.73
2023-04-01T20:07:04.759Z,970.76
2023-04-01T20:08:04.719Z,970.71
2023-04-01T20:09:04.971Z,970.75
2023-04-01T20:10:04.717Z,970.76
2023-04-01T20:11:04.847Z,970.75
2023-04-01T20:12:05.121Z,970.74
2023-04-01T20:13:04.641Z,970.78
2023-04-01T20:14:04.871Z,970.70
2023-04-01T20:15:04.954Z,970.79
2023-04-01T20:16:04.904Z,970.71
2023-04-01T20:17:04.617Z,970.77
2023-04-01T20:18:04.946Z,970.80
2023-04-01T20:19:04.723Z,970.84
2023-04-01T20:20:04.789Z,970.80
2023-04-01T20:21:04.565Z,970.84
2023-04-01T20:22:04.545Z,970.89
2023-04-01T20:23:04.502Z,970.85
2023-04-01T20:24:04.550Z,970.87
2023-04-01T20:25:04.610Z,970.91
2023-04-01T20:26:04.714Z,970.92
2023-04-01T20:27:04.487Z,970.92
2023-04-01T20:28:04.459Z,970.92
2023-04-01T20:29:04.516Z,970.93
2023-04-01T20:30:04.564Z,970.86
2023-04-01T20:31:04.721Z,970.98
2023-04-01T20:32:04.439Z,971.01
2023-04-01T20:33:04.491Z,970.97
2023-04-01T20:34:04.554Z,970.99
2023-04-01T20:35:04.360Z,970.97
2023-04-01T20:36:04.504Z,970.97
2023-04-01T20:37:04.368Z,970.89
2023-04-01T20:38:04.315Z,970.96
2023-04-01T20:39:04.574Z,970.98
2023-04-01T20:40:04.377Z,970.96
2023-04-01T20:41:04.534Z,970.94
2023-04-01T20:42:04.389Z,970.95
2023-04-01T20:43:04.255Z,970.88
2023-04-01T20:44:04.379Z,970.85
2023-04-01T20:45:04.270Z,970.88
2023-04-01T20:46:04.294Z,970.91
2023-04-01T20:47:04.267Z,970.97
2023-04-01T20:48:04.279Z,970.95
2023-04-01T20:49:04.171Z,970.95
2023-04-01T20:50:04.306Z,970.99
2023-04-01T20:51:04.178Z,971.00
2023-04-01T20:52:04.130Z,970.99
2023-04-01T20:53:04.207Z,971.00
2023-04-01T20:54:04.205Z,971.08
2023-04-01T20:55:04.088Z,971.09
2023-04-01T20:56:04.093Z,971.10
2023-04-01T20:57:04.261Z,971.09
2023-04-01T20:58:04.098Z,971.03
2023-04-01T20:59:04.087Z,971.14
2023-04-01T21:00:04.099Z,971.12
2023-04-01T21:01:04.247Z,971.08
2023-04-01T21:02:04.053Z,971.14
2023-04-01T21:03:04.277Z,971.12
2023-04-01T21:04:04.057Z,971.05
2023-04-01T21:05:04.082Z,971.03